sensor_id;sensor_type;location;lat;lon;timestamp;temperature;humidity
11387;DHT22;5748;53.102;8.456;2024-01-30T00:00:39;9.20;57.80
11387;DHT22;5748;53.102;8.456;2024-01-30T00:03:06;9.20;57.80
11387;DHT22;5748;53.102;8.456;2024-01-30T00:05:35;9.20;58.00
11387;DHT22;5748;53.102;8.456;2024-01-30T00:08:02;9.10;57.90
11387;DHT22;5748;53.102;8.456;2024-01-30T00:10:30;9.10;58.00
11387;DHT22;5748;53.102;8.456;2024-01-30T00:12:57;9.10;58.00
11387;DHT22;5748;53.102;8.456;2024-01-30T00:15:24;9.10;58.00
11387;DHT22;5748;53.102;8.456;2024-01-30T00:17:51;9.10;58.10
11387;DHT22;5748;53.102;8.456;2024-01-30T00:20:18;9.00;58.00
11387;DHT22;5748;53.102;8.456;2024-01-30T00:22:47;9.00;58.10
11387;DHT22;5748;53.102;8.456;2024-01-30T00:25:14;9.00;58.10
11387;DHT22;5748;53.102;8.456;2024-01-30T00:27:56;8.90;58.10
11387;DHT22;5748;53.102;8.456;2024-01-30T00:30:23;8.90;58.40
11387;DHT22;5748;53.102;8.456;2024-01-30T00:32:50;8.90;58.10
11387;DHT22;5748;53.102;8.456;2024-01-30T00:35:17;8.80;58.10
11387;DHT22;5748;53.102;8.456;2024-01-30T00:37:44;8.80;58.10
11387;DHT22;5748;53.102;8.456;2024-01-30T00:40:12;8.80;58.30
11387;DHT22;5748;53.102;8.456;2024-01-30T00:42:41;8.80;58.30
11387;DHT22;5748;53.102;8.456;2024-01-30T00:45:12;8.70;58.30
11387;DHT22;5748;53.102;8.456;2024-01-30T00:47:40;8.70;58.50
11387;DHT22;5748;53.102;8.456;2024-01-30T00:50:07;8.70;58.70
11387;DHT22;5748;53.102;8.456;2024-01-30T00:52:35;8.70;58.60
11387;DHT22;5748;53.102;8.456;2024-01-30T00:55:02;8.70;58.70
11387;DHT22;5748;53.102;8.456;2024-01-30T00:57:31;8.60;58.70
11387;DHT22;5748;53.102;8.456;2024-01-30T00:59:58;8.60;58.70
11387;DHT22;5748;53.102;8.456;2024-01-30T01:02:25;8.70;58.80
11387;DHT22;5748;53.102;8.456;2024-01-30T01:04:52;8.60;58.80
11387;DHT22;5748;53.102;8.456;2024-01-30T01:07:18;8.60;58.80
11387;DHT22;5748;53.102;8.456;2024-01-30T01:09:45;8.70;59.10
11387;DHT22;5748;53.102;8.456;2024-01-30T01:12:13;8.70;59.10
11387;DHT22;5748;53.102;8.456;2024-01-30T01:14:41;8.70;59.10
11387;DHT22;5748;53.102;8.456;2024-01-30T01:17:08;8.70;59.20
11387;DHT22;5748;53.102;8.456;2024-01-30T01:19:35;8.70;59.30
11387;DHT22;5748;53.102;8.456;2024-01-30T01:22:02;8.70;59.30
11387;DHT22;5748;53.102;8.456;2024-01-30T01:24:31;8.70;59.40
11387;DHT22;5748;53.102;8.456;2024-01-30T01:26:58;8.70;59.40
11387;DHT22;5748;53.102;8.456;2024-01-30T01:29:25;8.80;59.50
11387;DHT22;5748;53.102;8.456;2024-01-30T01:31:55;8.70;59.40
11387;DHT22;5748;53.102;8.456;2024-01-30T01:34:22;10.20;59.70
11387;DHT22;5748;53.102;8.456;2024-01-30T01:36:50;8.80;59.60
11387;DHT22;5748;53.102;8.456;2024-01-30T01:39:17;8.80;59.70
11387;DHT22;5748;53.102;8.456;2024-01-30T01:41:44;8.80;59.70
11387;DHT22;5748;53.102;8.456;2024-01-30T01:44:11;8.80;59.70
11387;DHT22;5748;53.102;8.456;2024-01-30T01:46:38;8.80;59.70
11387;DHT22;5748;53.102;8.456;2024-01-30T01:49:07;8.80;59.70
11387;DHT22;5748;53.102;8.456;2024-01-30T01:51:35;8.90;59.80
11387;DHT22;5748;53.102;8.456;2024-01-30T01:54:04;8.80;59.60
11387;DHT22;5748;53.102;8.456;2024-01-30T01:56:33;8.90;59.70
11387;DHT22;5748;53.102;8.456;2024-01-30T01:59:05;8.90;59.80
11387;DHT22;5748;53.102;8.456;2024-01-30T02:01:33;8.90;59.90
11387;DHT22;5748;53.102;8.456;2024-01-30T02:04:00;8.90;59.90
11387;DHT22;5748;53.102;8.456;2024-01-30T02:06:29;8.90;59.80
11387;DHT22;5748;53.102;8.456;2024-01-30T02:08:56;8.90;59.80
11387;DHT22;5748;53.102;8.456;2024-01-30T02:11:23;8.90;59.90
11387;DHT22;5748;53.102;8.456;2024-01-30T02:13:50;8.90;59.90
11387;DHT22;5748;53.102;8.456;2024-01-30T02:16:17;8.90;59.90
11387;DHT22;5748;53.102;8.456;2024-01-30T02:18:44;8.90;60.20
11387;DHT22;5748;53.102;8.456;2024-01-30T02:21:15;8.90;60.30
11387;DHT22;5748;53.102;8.456;2024-01-30T02:23:43;8.90;60.40
11387;DHT22;5748;53.102;8.456;2024-01-30T02:26:11;8.90;60.50
11387;DHT22;5748;53.102;8.456;2024-01-30T02:28:38;9.00;60.60
11387;DHT22;5748;53.102;8.456;2024-01-30T02:31:05;9.00;60.80
11387;DHT22;5748;53.102;8.456;2024-01-30T02:33:32;9.00;60.90
11387;DHT22;5748;53.102;8.456;2024-01-30T02:35:59;9.00;60.80
11387;DHT22;5748;53.102;8.456;2024-01-30T02:38:28;9.10;60.90
11387;DHT22;5748;53.102;8.456;2024-01-30T02:40:55;9.10;60.70
11387;DHT22;5748;53.102;8.456;2024-01-30T02:43:23;9.10;60.60
11387;DHT22;5748;53.102;8.456;2024-01-30T02:45:50;9.20;60.60
11387;DHT22;5748;53.102;8.456;2024-01-30T02:48:17;9.20;60.60
11387;DHT22;5748;53.102;8.456;2024-01-30T02:50:44;9.20;60.50
11387;DHT22;5748;53.102;8.456;2024-01-30T02:53:11;9.20;60.60
11387;DHT22;5748;53.102;8.456;2024-01-30T02:55:39;9.20;60.60
11387;DHT22;5748;53.102;8.456;2024-01-30T02:58:06;9.20;60.60
11387;DHT22;5748;53.102;8.456;2024-01-30T03:00:32;10.00;60.30
11387;DHT22;5748;53.102;8.456;2024-01-30T03:02:59;9.20;60.60
11387;DHT22;5748;53.102;8.456;2024-01-30T03:05:27;9.20;60.60
11387;DHT22;5748;53.102;8.456;2024-01-30T03:07:54;9.20;61.30
11387;DHT22;5748;53.102;8.456;2024-01-30T03:10:21;9.20;60.70
11387;DHT22;5748;53.102;8.456;2024-01-30T03:12:49;9.90;61.50
11387;DHT22;5748;53.102;8.456;2024-01-30T03:15:16;9.30;60.90
11387;DHT22;5748;53.102;8.456;2024-01-30T03:17:43;9.30;60.90
11387;DHT22;5748;53.102;8.456;2024-01-30T03:20:11;9.40;61.10
11387;DHT22;5748;53.102;8.456;2024-01-30T03:22:38;9.30;61.20
11387;DHT22;5748;53.102;8.456;2024-01-30T03:25:05;9.30;61.20
11387;DHT22;5748;53.102;8.456;2024-01-30T03:27:33;9.30;61.30
11387;DHT22;5748;53.102;8.456;2024-01-30T03:30:01;9.40;61.30
11387;DHT22;5748;53.102;8.456;2024-01-30T03:32:29;8.30;60.30
11387;DHT22;5748;53.102;8.456;2024-01-30T03:34:56;9.50;61.50
11387;DHT22;5748;53.102;8.456;2024-01-30T03:37:23;9.50;61.50
11387;DHT22;5748;53.102;8.456;2024-01-30T03:39:50;9.50;61.50
11387;DHT22;5748;53.102;8.456;2024-01-30T03:42:17;9.60;61.70
11387;DHT22;5748;53.102;8.456;2024-01-30T03:44:44;9.60;61.70
11387;DHT22;5748;53.102;8.456;2024-01-30T03:47:13;9.70;61.40
11387;DHT22;5748;53.102;8.456;2024-01-30T03:49:40;9.70;61.90
11387;DHT22;5748;53.102;8.456;2024-01-30T03:52:07;9.70;61.70
11387;DHT22;5748;53.102;8.456;2024-01-30T03:54:34;9.80;61.90
11387;DHT22;5748;53.102;8.456;2024-01-30T03:57:01;9.80;61.70
11387;DHT22;5748;53.102;8.456;2024-01-30T03:59:29;9.80;61.70
11387;DHT22;5748;53.102;8.456;2024-01-30T04:01:56;9.80;61.60
11387;DHT22;5748;53.102;8.456;2024-01-30T04:04:24;9.90;61.80
11387;DHT22;5748;53.102;8.456;2024-01-30T04:06:51;9.90;61.70
11387;DHT22;5748;53.102;8.456;2024-01-30T04:09:18;9.90;61.60
11387;DHT22;5748;53.102;8.456;2024-01-30T04:11:45;10.00;60.40
11387;DHT22;5748;53.102;8.456;2024-01-30T04:14:12;9.90;61.30
11387;DHT22;5748;53.102;8.456;2024-01-30T04:16:39;10.00;60.20
11387;DHT22;5748;53.102;8.456;2024-01-30T04:19:06;10.00;60.10
11387;DHT22;5748;53.102;8.456;2024-01-30T04:21:34;10.10;60.20
11387;DHT22;5748;53.102;8.456;2024-01-30T04:24:01;9.90;61.10
11387;DHT22;5748;53.102;8.456;2024-01-30T04:26:28;9.90;61.10
11387;DHT22;5748;53.102;8.456;2024-01-30T04:28:55;9.90;61.00
11387;DHT22;5748;53.102;8.456;2024-01-30T04:31:22;9.90;61.00
11387;DHT22;5748;53.102;8.456;2024-01-30T04:33:49;9.80;61.00
11387;DHT22;5748;53.102;8.456;2024-01-30T04:36:16;9.80;61.20
11387;DHT22;5748;53.102;8.456;2024-01-30T04:38:45;9.80;61.30
11387;DHT22;5748;53.102;8.456;2024-01-30T04:41:12;9.80;61.40
11387;DHT22;5748;53.102;8.456;2024-01-30T04:43:39;9.80;61.50
11387;DHT22;5748;53.102;8.456;2024-01-30T04:46:06;9.80;61.30
11387;DHT22;5748;53.102;8.456;2024-01-30T04:48:33;9.80;61.10
11387;DHT22;5748;53.102;8.456;2024-01-30T04:51:00;9.70;61.00
11387;DHT22;5748;53.102;8.456;2024-01-30T04:53:29;9.70;61.00
11387;DHT22;5748;53.102;8.456;2024-01-30T04:55:58;9.70;61.00
11387;DHT22;5748;53.102;8.456;2024-01-30T04:58:25;9.70;60.80
11387;DHT22;5748;53.102;8.456;2024-01-30T05:00:52;9.60;60.60
11387;DHT22;5748;53.102;8.456;2024-01-30T05:03:19;9.60;60.70
11387;DHT22;5748;53.102;8.456;2024-01-30T05:05:48;9.60;60.80
11387;DHT22;5748;53.102;8.456;2024-01-30T05:08:15;9.50;60.70
11387;DHT22;5748;53.102;8.456;2024-01-30T05:10:42;9.50;60.70
11387;DHT22;5748;53.102;8.456;2024-01-30T05:13:10;9.50;60.70
11387;DHT22;5748;53.102;8.456;2024-01-30T05:15:39;9.50;60.80
11387;DHT22;5748;53.102;8.456;2024-01-30T05:18:06;9.40;60.70
11387;DHT22;5748;53.102;8.456;2024-01-30T05:20:33;9.40;60.80
11387;DHT22;5748;53.102;8.456;2024-01-30T05:23:00;9.40;60.90
11387;DHT22;5748;53.102;8.456;2024-01-30T05:25:27;9.30;61.00
11387;DHT22;5748;53.102;8.456;2024-01-30T05:27:54;9.30;61.10
11387;DHT22;5748;53.102;8.456;2024-01-30T05:30:23;9.30;61.20
11387;DHT22;5748;53.102;8.456;2024-01-30T05:32:50;9.30;61.30
11387;DHT22;5748;53.102;8.456;2024-01-30T05:35:18;9.30;61.30
11387;DHT22;5748;53.102;8.456;2024-01-30T05:37:47;9.30;61.30
11387;DHT22;5748;53.102;8.456;2024-01-30T05:40:14;9.30;61.50
11387;DHT22;5748;53.102;8.456;2024-01-30T05:42:42;9.30;61.60
11387;DHT22;5748;53.102;8.456;2024-01-30T05:45:09;9.10;61.50
11387;DHT22;5748;53.102;8.456;2024-01-30T05:47:37;9.30;61.70
11387;DHT22;5748;53.102;8.456;2024-01-30T05:50:05;9.30;61.80
11387;DHT22;5748;53.102;8.456;2024-01-30T05:52:33;9.30;62.60
11387;DHT22;5748;53.102;8.456;2024-01-30T05:55:00;9.30;61.90
11387;DHT22;5748;53.102;8.456;2024-01-30T05:57:28;9.30;62.00
11387;DHT22;5748;53.102;8.456;2024-01-30T05:59:54;9.20;61.70
11387;DHT22;5748;53.102;8.456;2024-01-30T06:02:21;9.20;61.80
11387;DHT22;5748;53.102;8.456;2024-01-30T06:04:50;9.30;62.00
11387;DHT22;5748;53.102;8.456;2024-01-30T06:07:17;9.30;61.70
11387;DHT22;5748;53.102;8.456;2024-01-30T06:09:44;9.30;62.00
11387;DHT22;5748;53.102;8.456;2024-01-30T06:12:12;9.30;62.10
11387;DHT22;5748;53.102;8.456;2024-01-30T06:14:39;9.30;62.20
11387;DHT22;5748;53.102;8.456;2024-01-30T06:17:07;9.40;62.30
11387;DHT22;5748;53.102;8.456;2024-01-30T06:19:35;9.50;62.60
11387;DHT22;5748;53.102;8.456;2024-01-30T06:22:03;9.40;62.50
11387;DHT22;5748;53.102;8.456;2024-01-30T06:24:30;9.40;62.50
11387;DHT22;5748;53.102;8.456;2024-01-30T06:26:59;9.50;62.70
11387;DHT22;5748;53.102;8.456;2024-01-30T06:29:26;9.50;62.70
11387;DHT22;5748;53.102;8.456;2024-01-30T06:31:53;9.50;62.80
11387;DHT22;5748;53.102;8.456;2024-01-30T06:34:21;9.60;62.80
11387;DHT22;5748;53.102;8.456;2024-01-30T06:36:48;9.60;62.80
11387;DHT22;5748;53.102;8.456;2024-01-30T06:39:16;9.70;62.80
11387;DHT22;5748;53.102;8.456;2024-01-30T06:41:43;9.70;62.80
11387;DHT22;5748;53.102;8.456;2024-01-30T06:44:12;9.70;62.60
11387;DHT22;5748;53.102;8.456;2024-01-30T06:46:40;9.80;62.80
11387;DHT22;5748;53.102;8.456;2024-01-30T06:49:07;9.80;62.80
11387;DHT22;5748;53.102;8.456;2024-01-30T06:51:34;9.80;62.70
11387;DHT22;5748;53.102;8.456;2024-01-30T06:54:01;9.80;62.70
11387;DHT22;5748;53.102;8.456;2024-01-30T06:56:29;9.90;62.80
11387;DHT22;5748;53.102;8.456;2024-01-30T06:58:56;9.90;62.80
11387;DHT22;5748;53.102;8.456;2024-01-30T07:01:28;9.90;62.80
11387;DHT22;5748;53.102;8.456;2024-01-30T07:03:55;10.00;61.90
11387;DHT22;5748;53.102;8.456;2024-01-30T07:06:22;9.90;62.80
11387;DHT22;5748;53.102;8.456;2024-01-30T07:08:49;10.00;61.80
11387;DHT22;5748;53.102;8.456;2024-01-30T07:11:18;10.00;61.80
11387;DHT22;5748;53.102;8.456;2024-01-30T07:13:47;10.00;61.80
11387;DHT22;5748;53.102;8.456;2024-01-30T07:16:14;10.10;61.80
11387;DHT22;5748;53.102;8.456;2024-01-30T07:18:41;10.10;61.70
11387;DHT22;5748;53.102;8.456;2024-01-30T07:21:08;10.10;61.60
11387;DHT22;5748;53.102;8.456;2024-01-30T07:23:35;10.10;61.50
11387;DHT22;5748;53.102;8.456;2024-01-30T07:26:04;10.20;61.60
11387;DHT22;5748;53.102;8.456;2024-01-30T07:28:32;10.20;61.80
11387;DHT22;5748;53.102;8.456;2024-01-30T07:31:01;10.10;61.80
11387;DHT22;5748;53.102;8.456;2024-01-30T07:33:28;10.20;62.00
11387;DHT22;5748;53.102;8.456;2024-01-30T07:35:55;10.20;62.00
11387;DHT22;5748;53.102;8.456;2024-01-30T07:38:22;10.20;62.10
11387;DHT22;5748;53.102;8.456;2024-01-30T07:40:50;10.30;62.30
11387;DHT22;5748;53.102;8.456;2024-01-30T07:43:17;10.30;62.30
11387;DHT22;5748;53.102;8.456;2024-01-30T07:45:45;10.40;62.40
11387;DHT22;5748;53.102;8.456;2024-01-30T07:48:14;10.40;62.40
11387;DHT22;5748;53.102;8.456;2024-01-30T07:50:41;10.40;62.40
11387;DHT22;5748;53.102;8.456;2024-01-30T07:53:08;10.50;62.60
11387;DHT22;5748;53.102;8.456;2024-01-30T07:55:35;10.50;62.60
11387;DHT22;5748;53.102;8.456;2024-01-30T07:58:02;10.60;62.70
11387;DHT22;5748;53.102;8.456;2024-01-30T08:00:30;10.70;62.80
11387;DHT22;5748;53.102;8.456;2024-01-30T08:02:57;10.70;63.20
11387;DHT22;5748;53.102;8.456;2024-01-30T08:05:25;10.80;63.00
11387;DHT22;5748;53.102;8.456;2024-01-30T08:07:52;10.80;62.90
11387;DHT22;5748;53.102;8.456;2024-01-30T08:10:20;10.90;62.80
11387;DHT22;5748;53.102;8.456;2024-01-30T08:12:47;11.00;63.00
11387;DHT22;5748;53.102;8.456;2024-01-30T08:15:14;11.10;63.10
11387;DHT22;5748;53.102;8.456;2024-01-30T08:17:41;11.10;62.90
11387;DHT22;5748;53.102;8.456;2024-01-30T08:20:10;11.20;62.90
11387;DHT22;5748;53.102;8.456;2024-01-30T08:22:40;11.20;62.90
11387;DHT22;5748;53.102;8.456;2024-01-30T08:25:08;11.30;63.70
11387;DHT22;5748;53.102;8.456;2024-01-30T08:27:36;11.30;62.90
11387;DHT22;5748;53.102;8.456;2024-01-30T08:30:05;11.40;63.00
11387;DHT22;5748;53.102;8.456;2024-01-30T08:32:32;11.40;63.00
11387;DHT22;5748;53.102;8.456;2024-01-30T08:35:00;11.70;63.30
11387;DHT22;5748;53.102;8.456;2024-01-30T08:37:29;11.60;63.00
11387;DHT22;5748;53.102;8.456;2024-01-30T08:39:57;11.70;63.10
11387;DHT22;5748;53.102;8.456;2024-01-30T08:42:24;11.80;63.00
11387;DHT22;5748;53.102;8.456;2024-01-30T08:44:51;11.70;62.90
11387;DHT22;5748;53.102;8.456;2024-01-30T08:47:19;11.80;62.60
11387;DHT22;5748;53.102;8.456;2024-01-30T08:49:46;11.80;62.90
11387;DHT22;5748;53.102;8.456;2024-01-30T08:52:13;11.80;62.90
11387;DHT22;5748;53.102;8.456;2024-01-30T08:54:40;11.90;62.90
11387;DHT22;5748;53.102;8.456;2024-01-30T08:57:09;11.90;62.90
11387;DHT22;5748;53.102;8.456;2024-01-30T08:59:36;12.00;63.00
11387;DHT22;5748;53.102;8.456;2024-01-30T09:02:03;12.00;62.90
11387;DHT22;5748;53.102;8.456;2024-01-30T09:04:30;12.00;63.00
11387;DHT22;5748;53.102;8.456;2024-01-30T09:06:57;12.10;62.90
11387;DHT22;5748;53.102;8.456;2024-01-30T09:09:24;12.10;62.90
11387;DHT22;5748;53.102;8.456;2024-01-30T09:11:51;12.10;62.80
11387;DHT22;5748;53.102;8.456;2024-01-30T09:14:20;12.20;63.00
11387;DHT22;5748;53.102;8.456;2024-01-30T09:16:46;12.20;63.00
11387;DHT22;5748;53.102;8.456;2024-01-30T09:19:14;12.30;63.00
11387;DHT22;5748;53.102;8.456;2024-01-30T09:21:41;12.40;63.00
11387;DHT22;5748;53.102;8.456;2024-01-30T09:24:08;12.40;63.00
11387;DHT22;5748;53.102;8.456;2024-01-30T09:26:35;12.40;62.90
11387;DHT22;5748;53.102;8.456;2024-01-30T09:29:02;12.50;62.90
11387;DHT22;5748;53.102;8.456;2024-01-30T09:31:31;12.60;63.00
11387;DHT22;5748;53.102;8.456;2024-01-30T09:33:58;12.60;63.10
11387;DHT22;5748;53.102;8.456;2024-01-30T09:36:25;12.70;63.10
11387;DHT22;5748;53.102;8.456;2024-01-30T09:38:53;12.70;63.10
11387;DHT22;5748;53.102;8.456;2024-01-30T09:41:20;12.70;63.10
11387;DHT22;5748;53.102;8.456;2024-01-30T09:43:51;12.80;63.10
11387;DHT22;5748;53.102;8.456;2024-01-30T09:46:18;12.80;63.10
11387;DHT22;5748;53.102;8.456;2024-01-30T09:48:48;12.90;63.10
11387;DHT22;5748;53.102;8.456;2024-01-30T09:51:17;13.00;63.10
11387;DHT22;5748;53.102;8.456;2024-01-30T09:53:44;12.90;62.90
11387;DHT22;5748;53.102;8.456;2024-01-30T09:56:12;13.00;62.90
11387;DHT22;5748;53.102;8.456;2024-01-30T09:58:40;13.00;62.90
11387;DHT22;5748;53.102;8.456;2024-01-30T10:01:07;13.00;62.80
11387;DHT22;5748;53.102;8.456;2024-01-30T10:03:34;13.10;62.90
11387;DHT22;5748;53.102;8.456;2024-01-30T10:06:03;13.10;62.90
11387;DHT22;5748;53.102;8.456;2024-01-30T10:08:30;13.10;62.90
11387;DHT22;5748;53.102;8.456;2024-01-30T10:10:57;13.10;63.70
11387;DHT22;5748;53.102;8.456;2024-01-30T10:13:24;13.20;63.10
11387;DHT22;5748;53.102;8.456;2024-01-30T10:15:53;13.20;63.10
11387;DHT22;5748;53.102;8.456;2024-01-30T10:18:22;13.20;63.20
11387;DHT22;5748;53.102;8.456;2024-01-30T10:20:49;13.20;63.20
11387;DHT22;5748;53.102;8.456;2024-01-30T10:23:17;13.30;63.20
11387;DHT22;5748;53.102;8.456;2024-01-30T10:25:45;13.30;63.20
11387;DHT22;5748;53.102;8.456;2024-01-30T10:28:12;13.40;63.40
11387;DHT22;5748;53.102;8.456;2024-01-30T10:30:39;13.40;63.40
11387;DHT22;5748;53.102;8.456;2024-01-30T10:33:06;13.50;63.40
11387;DHT22;5748;53.102;8.456;2024-01-30T10:35:33;13.50;63.60
11387;DHT22;5748;53.102;8.456;2024-01-30T10:38:00;13.60;63.60
11387;DHT22;5748;53.102;8.456;2024-01-30T10:40:31;13.70;63.80
11387;DHT22;5748;53.102;8.456;2024-01-30T10:43:00;13.80;64.00
11387;DHT22;5748;53.102;8.456;2024-01-30T10:45:28;13.80;63.80
11387;DHT22;5748;53.102;8.456;2024-01-30T10:47:58;13.90;63.70
11387;DHT22;5748;53.102;8.456;2024-01-30T10:50:26;14.00;63.70
11387;DHT22;5748;53.102;8.456;2024-01-30T10:52:54;14.00;63.50
11387;DHT22;5748;53.102;8.456;2024-01-30T10:55:22;14.10;63.40
11387;DHT22;5748;53.102;8.456;2024-01-30T10:57:51;14.10;63.30
11387;DHT22;5748;53.102;8.456;2024-01-30T11:00:19;14.20;63.30
11387;DHT22;5748;53.102;8.456;2024-01-30T11:02:49;14.20;63.20
11387;DHT22;5748;53.102;8.456;2024-01-30T11:05:24;14.30;63.30
11387;DHT22;5748;53.102;8.456;2024-01-30T11:07:52;14.30;63.50
11387;DHT22;5748;53.102;8.456;2024-01-30T11:10:19;14.80;64.00
11387;DHT22;5748;53.102;8.456;2024-01-30T11:12:46;14.40;63.50
11387;DHT22;5748;53.102;8.456;2024-01-30T11:15:17;14.50;63.50
11387;DHT22;5748;53.102;8.456;2024-01-30T11:17:45;14.50;63.50
11387;DHT22;5748;53.102;8.456;2024-01-30T11:20:20;14.50;63.50
11387;DHT22;5748;53.102;8.456;2024-01-30T11:22:49;14.60;63.60
11387;DHT22;5748;53.102;8.456;2024-01-30T11:25:19;14.70;63.70
11387;DHT22;5748;53.102;8.456;2024-01-30T11:27:47;14.70;63.70
11387;DHT22;5748;53.102;8.456;2024-01-30T11:30:24;14.80;63.70
11387;DHT22;5748;53.102;8.456;2024-01-30T11:32:59;14.80;63.60
11387;DHT22;5748;53.102;8.456;2024-01-30T11:35:30;14.90;63.60
11387;DHT22;5748;53.102;8.456;2024-01-30T11:37:59;14.90;63.40
11387;DHT22;5748;53.102;8.456;2024-01-30T11:40:28;14.90;63.30
11387;DHT22;5748;53.102;8.456;2024-01-30T11:42:55;15.00;63.40
11387;DHT22;5748;53.102;8.456;2024-01-30T11:45:24;14.90;63.30
11387;DHT22;5748;53.102;8.456;2024-01-30T11:47:51;15.00;63.40
11387;DHT22;5748;53.102;8.456;2024-01-30T11:50:18;15.10;63.60
11387;DHT22;5748;53.102;8.456;2024-01-30T11:52:45;15.00;63.60
11387;DHT22;5748;53.102;8.456;2024-01-30T11:55:13;15.10;63.70
11387;DHT22;5748;53.102;8.456;2024-01-30T11:57:41;15.10;63.80
11387;DHT22;5748;53.102;8.456;2024-01-30T12:00:14;15.20;63.70
11387;DHT22;5748;53.102;8.456;2024-01-30T12:02:44;15.30;63.70
11387;DHT22;5748;53.102;8.456;2024-01-30T12:05:11;15.20;63.40
11387;DHT22;5748;53.102;8.456;2024-01-30T12:07:38;15.30;63.40
11387;DHT22;5748;53.102;8.456;2024-01-30T12:10:05;15.30;63.40
11387;DHT22;5748;53.102;8.456;2024-01-30T12:12:33;15.30;63.40
11387;DHT22;5748;53.102;8.456;2024-01-30T12:15:01;15.40;63.50
11387;DHT22;5748;53.102;8.456;2024-01-30T12:17:30;15.40;63.40
11387;DHT22;5748;53.102;8.456;2024-01-30T12:20:06;15.40;63.40
11387;DHT22;5748;53.102;8.456;2024-01-30T12:22:36;15.40;64.30
11387;DHT22;5748;53.102;8.456;2024-01-30T12:25:05;15.40;63.50
11387;DHT22;5748;53.102;8.456;2024-01-30T12:27:33;15.40;63.60
11387;DHT22;5748;53.102;8.456;2024-01-30T12:30:01;15.40;63.70
11387;DHT22;5748;53.102;8.456;2024-01-30T12:32:33;15.40;63.60
11387;DHT22;5748;53.102;8.456;2024-01-30T12:35:01;15.50;63.80
11387;DHT22;5748;53.102;8.456;2024-01-30T12:37:30;15.50;63.40
11387;DHT22;5748;53.102;8.456;2024-01-30T12:39:58;15.60;63.90
11387;DHT22;5748;53.102;8.456;2024-01-30T12:42:27;15.40;63.70
11387;DHT22;5748;53.102;8.456;2024-01-30T12:44:56;15.50;63.80
11387;DHT22;5748;53.102;8.456;2024-01-30T12:47:23;15.50;63.80
11387;DHT22;5748;53.102;8.456;2024-01-30T12:49:50;15.50;63.70
11387;DHT22;5748;53.102;8.456;2024-01-30T12:52:19;15.50;63.70
11387;DHT22;5748;53.102;8.456;2024-01-30T12:54:49;15.50;63.70
11387;DHT22;5748;53.102;8.456;2024-01-30T12:57:16;15.50;63.70
11387;DHT22;5748;53.102;8.456;2024-01-30T12:59:44;15.60;63.70
11387;DHT22;5748;53.102;8.456;2024-01-30T13:02:12;15.50;63.60
11387;DHT22;5748;53.102;8.456;2024-01-30T13:04:40;15.50;63.60
11387;DHT22;5748;53.102;8.456;2024-01-30T13:07:07;15.50;63.60
11387;DHT22;5748;53.102;8.456;2024-01-30T13:09:34;15.60;63.70
11387;DHT22;5748;53.102;8.456;2024-01-30T13:12:04;15.60;63.70
11387;DHT22;5748;53.102;8.456;2024-01-30T13:14:31;15.50;63.60
11387;DHT22;5748;53.102;8.456;2024-01-30T13:16:58;15.50;63.60
11387;DHT22;5748;53.102;8.456;2024-01-30T13:19:25;15.60;63.70
11387;DHT22;5748;53.102;8.456;2024-01-30T13:21:52;15.50;63.70
11387;DHT22;5748;53.102;8.456;2024-01-30T13:24:19;15.60;63.70
11387;DHT22;5748;53.102;8.456;2024-01-30T13:26:47;15.60;63.80
11387;DHT22;5748;53.102;8.456;2024-01-30T13:29:16;15.50;63.70
11387;DHT22;5748;53.102;8.456;2024-01-30T13:31:43;15.50;63.80
11387;DHT22;5748;53.102;8.456;2024-01-30T13:34:12;15.50;63.70
11387;DHT22;5748;53.102;8.456;2024-01-30T13:36:40;15.50;64.50
11387;DHT22;5748;53.102;8.456;2024-01-30T13:39:07;15.50;63.80
11387;DHT22;5748;53.102;8.456;2024-01-30T13:41:36;15.50;63.80
11387;DHT22;5748;53.102;8.456;2024-01-30T13:44:04;15.50;63.70
11387;DHT22;5748;53.102;8.456;2024-01-30T13:46:32;15.50;63.80
11387;DHT22;5748;53.102;8.456;2024-01-30T13:48:59;15.50;63.90
11387;DHT22;5748;53.102;8.456;2024-01-30T13:51:26;15.40;63.70
11387;DHT22;5748;53.102;8.456;2024-01-30T13:53:53;15.50;63.90
11387;DHT22;5748;53.102;8.456;2024-01-30T13:56:21;15.50;63.90
11387;DHT22;5748;53.102;8.456;2024-01-30T13:58:48;15.50;63.90
11387;DHT22;5748;53.102;8.456;2024-01-30T14:01:15;15.50;64.00
11387;DHT22;5748;53.102;8.456;2024-01-30T14:03:44;15.50;63.90
11387;DHT22;5748;53.102;8.456;2024-01-30T14:06:11;15.50;63.90
11387;DHT22;5748;53.102;8.456;2024-01-30T14:08:39;15.50;63.90
11387;DHT22;5748;53.102;8.456;2024-01-30T14:11:06;15.50;63.90
11387;DHT22;5748;53.102;8.456;2024-01-30T14:13:33;15.50;63.90
11387;DHT22;5748;53.102;8.456;2024-01-30T14:16:01;15.60;63.90
11387;DHT22;5748;53.102;8.456;2024-01-30T14:18:28;15.50;63.90
11387;DHT22;5748;53.102;8.456;2024-01-30T14:20:56;15.60;64.00
11387;DHT22;5748;53.102;8.456;2024-01-30T14:23:24;15.60;64.00
11387;DHT22;5748;53.102;8.456;2024-01-30T14:25:51;15.60;63.90
11387;DHT22;5748;53.102;8.456;2024-01-30T14:28:18;15.60;64.00
11387;DHT22;5748;53.102;8.456;2024-01-30T14:30:45;15.60;64.60
11387;DHT22;5748;53.102;8.456;2024-01-30T14:33:12;15.70;63.80
11387;DHT22;5748;53.102;8.456;2024-01-30T14:35:39;15.70;63.70
11387;DHT22;5748;53.102;8.456;2024-01-30T14:38:08;15.70;64.30
11387;DHT22;5748;53.102;8.456;2024-01-30T14:40:35;15.70;63.40
11387;DHT22;5748;53.102;8.456;2024-01-30T14:43:03;15.70;63.30
11387;DHT22;5748;53.102;8.456;2024-01-30T14:45:30;15.70;63.20
11387;DHT22;5748;53.102;8.456;2024-01-30T14:47:58;15.70;63.20
11387;DHT22;5748;53.102;8.456;2024-01-30T14:50:26;15.60;63.10
11387;DHT22;5748;53.102;8.456;2024-01-30T14:52:53;15.60;63.00
11387;DHT22;5748;53.102;8.456;2024-01-30T14:55:22;15.60;63.10
11387;DHT22;5748;53.102;8.456;2024-01-30T14:57:49;15.60;63.10
11387;DHT22;5748;53.102;8.456;2024-01-30T15:00:17;15.60;63.10
11387;DHT22;5748;53.102;8.456;2024-01-30T15:02:44;15.60;63.20
11387;DHT22;5748;53.102;8.456;2024-01-30T15:05:12;15.60;63.10
11387;DHT22;5748;53.102;8.456;2024-01-30T15:07:40;15.60;63.10
11387;DHT22;5748;53.102;8.456;2024-01-30T15:10:07;15.60;63.10
11387;DHT22;5748;53.102;8.456;2024-01-30T15:12:37;15.60;63.00
11387;DHT22;5748;53.102;8.456;2024-01-30T15:15:06;15.60;63.00
11387;DHT22;5748;53.102;8.456;2024-01-30T15:17:34;15.60;62.90
11387;DHT22;5748;53.102;8.456;2024-01-30T15:20:01;15.60;62.90
11387;DHT22;5748;53.102;8.456;2024-01-30T15:22:29;15.60;62.90
11387;DHT22;5748;53.102;8.456;2024-01-30T15:24:56;15.60;62.80
11387;DHT22;5748;53.102;8.456;2024-01-30T15:27:23;15.60;62.90
11387;DHT22;5748;53.102;8.456;2024-01-30T15:29:52;15.60;62.80
11387;DHT22;5748;53.102;8.456;2024-01-30T15:32:19;15.60;62.80
11387;DHT22;5748;53.102;8.456;2024-01-30T15:34:46;15.60;62.80
11387;DHT22;5748;53.102;8.456;2024-01-30T15:37:13;15.60;62.80
11387;DHT22;5748;53.102;8.456;2024-01-30T15:39:40;15.60;62.80
11387;DHT22;5748;53.102;8.456;2024-01-30T15:42:07;15.60;62.80
11387;DHT22;5748;53.102;8.456;2024-01-30T15:44:34;15.50;62.70
11387;DHT22;5748;53.102;8.456;2024-01-30T15:47:03;15.50;62.70
11387;DHT22;5748;53.102;8.456;2024-01-30T15:49:30;15.50;62.70
11387;DHT22;5748;53.102;8.456;2024-01-30T15:51:57;15.60;62.80
11387;DHT22;5748;53.102;8.456;2024-01-30T15:54:24;15.50;62.70